KDUG

Bisbee Douglas International Airport

Douglas Bisbee, Arizona, USA
METAR KDUG 230156Z AUTO 19012KT 10SM CLR 26/M09 A2991 RMK AO2 SLP062 T02611089
Observed Flight Rules
May-23 @ 01:56 UTC (59 minutes ago) Visual Flight Rules
Wind Visibility Clouds
190° at 12 knots 10 miles
  • Clear skies
Temperatures Readings
Current 26°C / 79°F
Dewpoint -9°C / 16°F
Humidity 9%
Altimeter 29.91" Hg
Pressure 1006.2 hPa
Elevation 1265
METAR KDUG 230156Z AUTO 19012KT 10SM CLR 26/M09 A2991 RMK AO2 SLP062 T02611089
Observed Flight Rules
May-23 @ 01:56 UTC
(59 minutes ago)
VFR
Wind Visibility
190° at 12 knots 10 miles
Clouds
  • Clear skies
Temperature Dewpoint
26°C / 79°F -9°C / 16°F
Humidity Altimeter Pressure
9% 29.91" Hg 1006.2 hPa